Wheatland, ND (58079)

2:17 PM CST on December 02, 2016 (GMT -0600)
Home of the Absaraka Crows | | Change Station

Elev 1066 ft 46.98 °N, 97.39 °W | Updated 1 second ago

Overcast
Overcast
29.5 °F
Feels Like 25 °F
N
3.8
Wind Variable Wind from West
Gusts 3.8 mph

Today
High -- | Low -- °F
--% Chance of Precip.
Yesterday
High -- | Low -- °F
Precip. -- in
Pressure 30.31 in
Visibility 10.0 miles
Clouds Overcast 2400 ft
Windchill 25 °F
Dew Point 24 °F
Humidity 80%
Rainfall 0.00 in
Snow Depth Not available.
7:55 AM 4:41 PM
Waxing Crescent, 10% visible
METAR KFAR 021953Z 35007KT 10SM OVC024 M01/M06 A3026 RMK AO2 SLP262 T10061061
Pressure 30.31 in
Visibility 10.0 miles
Clouds Overcast 2400 ft
Windchill 25 °F
Dew Point 24 °F
Humidity 80%
Rainfall 0.00 in
Snow Depth Not available.
7:55 AM 4:41 PM
Waxing Crescent, 10% visible
METAR KFAR 021953Z 35007KT 10SM OVC024 M01/M06 A3026 RMK AO2 SLP262 T10061061

10-Day Weather Forecast

Almanac

Astronomy

Dec. 02, 2016 Rise Set
Actual Time
Civil Twilight
Nautical Twilight
Astronomical Twilight
Moon
Length of Visible Light
Length of Day
Tomorrow will be .
, % of the Moon is Illuminated

Today's Extremes

State Highs State Lows

Community

WunderPhotos

Upload Photos

1,955,348 photos uploaded!

WunderBlog® & News

Nearby

Air Quality

  Air Quality AQ Index Pollutant
Not available.

Snow Depth

Station Depth Elevation

Earthquake Activity

City Distance Mag. Time & Date
Minimum magnitude displayed is 2.5.

Coastal Water Temperatures

Place Temperature

Stations

Nearby Weather Stations

Station Location Temp. Windchill Dew Point Humidity Wind Precip. Elev Updated Type
                   

Watches & Warnings

There are currently no watches in effect.